Time;durP1;ratioP1;P1;durP2;ratioP2;P2;SDS_P1;SDS_P2;PMS_P1;PMS_P2;Temp;Humidity;BMP_temperature;BMP_pressure;BME280_temperature;BME280_humidity;BME280_pressure;Samples;Min_cycle;Max_cycle;Signal;HPM_P1;HPM_P2
2022/07/09 00:03:56;;;;;;;11.18;2.22;;;;;;;17.86;86.00;102519.81;20853170;28;20045;-65
2022/07/09 00:14:17;;;;;;;3.80;1.83;;;;;;;17.79;85.86;102515.88;20835508;28;20516;-66
2022/07/09 00:24:39;;;;;;;7.32;2.33;;;;;;;17.68;85.37;102502.56;20841975;28;20038;-66
2022/07/09 00:35:00;;;;;;;6.95;2.67;;;;;;;17.47;86.58;102491.66;20848636;28;20060;-66
2022/07/09 00:45:22;;;;;;;8.25;2.70;;;;;;;17.37;87.61;102492.38;20850770;28;20426;-65
2022/07/09 00:55:46;;;;;;;7.32;2.83;;;;;;;17.29;87.96;102485.88;20846807;28;20043;-66
2022/07/09 01:06:07;;;;;;;15.40;3.10;;;;;;;17.11;89.95;102485.31;20845609;28;20049;-65
2022/07/09 01:16:39;;;;;;;8.55;2.50;;;;;;;17.13;89.99;102464.97;20852581;28;20068;-65
2022/07/09 01:27:02;;;;;;;8.43;2.80;;;;;;;17.16;89.13;102459.50;20839701;28;20041;-65
2022/07/09 01:37:23;;;;;;;10.05;2.95;;;;;;;17.04;90.00;102449.75;20858270;28;20099;-66
2022/07/09 01:47:45;;;;;;;8.50;2.75;;;;;;;16.93;90.50;102439.06;20826282;28;20040;-65
2022/07/09 01:58:07;;;;;;;7.32;2.67;;;;;;;17.04;90.29;102433.94;20840097;28;20045;-65
2022/07/09 02:08:28;;;;;;;6.18;2.58;;;;;;;17.09;89.80;102421.31;20845587;28;20052;-66
2022/07/09 02:18:50;;;;;;;7.15;3.25;;;;;;;17.10;89.77;102401.91;20837446;28;20044;-66
2022/07/09 02:29:12;;;;;;;16.17;5.00;;;;;;;17.13;90.96;102401.72;20823568;28;20054;-66
2022/07/09 02:39:33;;;;;;;9.57;4.30;;;;;;;17.16;90.42;102385.69;20844619;28;20057;-66
2022/07/09 02:49:56;;;;;;;7.20;5.00;;;;;;;17.21;90.32;102388.84;20851180;28;20507;-66
2022/07/09 03:00:18;;;;;;;10.65;5.22;;;;;;;17.19;91.28;102377.56;20834915;28;20678;-66
2022/07/09 03:10:39;;;;;;;11.15;6.25;;;;;;;17.18;92.50;102385.59;20851574;28;20041;-65
2022/07/09 03:21:01;;;;;;;10.50;5.72;;;;;;;17.24;90.43;102372.84;20835609;28;20043;-66
2022/07/09 03:31:23;;;;;;;11.20;5.53;;;;;;;17.25;93.07;102369.25;20833885;28;20402;-66
2022/07/09 03:41:44;;;;;;;14.07;6.32;;;;;;;17.21;94.10;102356.38;20853127;28;20045;-66
2022/07/09 03:52:06;;;;;;;21.00;6.68;;;;;;;17.17;92.15;102350.50;20835798;28;20137;-67
2022/07/09 04:02:39;;;;;;;14.18;6.70;;;;;;;17.13;91.64;102369.22;20846968;28;20049;-66
2022/07/09 04:13:00;;;;;;;10.73;6.57;;;;;;;17.11;93.05;102363.22;20845794;28;20042;-64
2022/07/09 04:23:22;;;;;;;12.77;6.60;;;;;;;17.20;92.44;102350.25;20816615;28;20049;-65
2022/07/09 04:33:44;;;;;;;11.63;6.30;;;;;;;17.22;92.55;102353.63;20840642;28;20057;-65
2022/07/09 04:44:07;;;;;;;12.35;5.88;;;;;;;17.31;92.44;102345.16;20837572;28;20045;-65
2022/07/09 04:54:28;;;;;;;13.82;6.35;;;;;;;17.38;92.50;102343.78;20836807;28;20046;-65
2022/07/09 05:04:50;;;;;;;12.55;5.85;;;;;;;17.48;93.36;102356.22;20838174;28;20052;-65
2022/07/09 05:15:13;;;;;;;9.40;5.88;;;;;;;17.50;93.05;102358.75;20835942;28;20050;-64
2022/07/09 05:25:34;;;;;;;26.67;6.90;;;;;;;17.52;94.64;102339.25;20836708;28;20048;-65
2022/07/09 05:35:56;;;;;;;14.90;6.63;;;;;;;17.71;94.84;102333.53;20843612;28;20041;-65
2022/07/09 05:46:17;;;;;;;11.55;7.22;;;;;;;17.79;94.88;102344.38;20822592;28;20051;-64
2022/07/09 05:56:40;;;;;;;14.32;7.20;;;;;;;17.89;93.36;102340.16;20831091;28;20506;-64
2022/07/09 06:07:03;;;;;;;15.15;6.55;;;;;;;17.99;92.98;102343.81;20842086;28;20069;-64
2022/07/09 06:17:24;;;;;;;9.80;5.07;;;;;;;18.16;94.44;102344.28;20840060;28;20485;-65
2022/07/09 06:27:47;;;;;;;9.00;4.43;;;;;;;18.29;92.82;102349.56;20832438;28;20046;-64
2022/07/09 06:38:08;;;;;;;10.07;4.15;;;;;;;18.38;91.39;102358.50;20841622;28;20045;-66
2022/07/09 06:48:30;;;;;;;10.63;4.13;;;;;;;18.57;91.80;102350.94;20827812;28;20408;-66
2022/07/09 06:58:52;;;;;;;8.20;3.47;;;;;;;18.62;91.89;102338.25;20843954;28;20452;-67
2022/07/09 07:09:18;;;;;;;6.93;3.05;;;;;;;18.70;91.30;102341.16;20821778;28;20140;-64
2022/07/09 07:19:40;;;;;;;5.75;3.00;;;;;;;18.96;89.26;102340.03;20840317;28;20038;-65
2022/07/09 07:30:03;;;;;;;5.38;3.13;;;;;;;19.05;88.24;102334.06;20867733;28;20072;-65
2022/07/09 07:40:25;;;;;;;7.70;3.83;;;;;;;19.11;90.76;102340.69;20852957;28;20124;-63
2022/07/09 07:50:46;;;;;;;7.60;2.80;;;;;;;19.15;89.18;102332.44;20850645;28;20049;-65
2022/07/09 08:01:08;;;;;;;6.13;2.20;;;;;;;19.16;90.75;102336.78;20849074;28;20502;-64
2022/07/09 08:11:30;;;;;;;6.97;2.05;;;;;;;19.43;87.58;102332.00;20872794;28;20130;-64
2022/07/09 08:21:51;;;;;;;7.20;2.10;;;;;;;19.54;87.37;102319.63;20849269;28;20521;-66
2022/07/09 08:32:13;;;;;;;5.15;1.55;;;;;;;19.83;86.87;102315.53;20849603;28;20048;-66
2022/07/09 08:42:35;;;;;;;7.28;1.80;;;;;;;20.05;85.31;102315.53;20836483;28;20044;-64
2022/07/09 08:52:58;;;;;;;4.60;1.38;;;;;;;20.39;81.83;102304.72;20850630;28;20046;-65
2022/07/09 09:03:19;;;;;;;2.45;1.00;;;;;;;20.53;79.82;102291.16;20844943;28;20386;-66
2022/07/09 09:13:46;;;;;;;2.90;1.02;;;;;;;21.04;78.57;102286.00;20846341;28;20044;-66
2022/07/09 09:24:09;;;;;;;2.15;0.93;;;;;;;21.29;77.35;102278.47;20842976;28;20067;-66
2022/07/09 09:34:35;;;;;;;2.20;0.93;;;;;;;21.21;77.73;102278.28;20847072;28;20045;-65
2022/07/09 09:44:59;;;;;;;5.63;0.90;;;;;;;21.15;78.30;102284.13;20842332;28;20052;-66
2022/07/09 09:55:22;;;;;;;5.22;0.70;;;;;;;21.50;75.77;102279.28;20843180;28;20045;-65
2022/07/09 10:05:44;;;;;;;3.80;0.90;;;;;;;21.58;75.16;102282.97;20832755;28;20059;-67
2022/07/09 10:16:05;;;;;;;3.08;0.77;;;;;;;21.49;75.53;102293.50;20838265;28;20052;-67
2022/07/09 10:26:46;;;;;;;4.95;1.00;;;;;;;21.38;74.68;102283.00;20842951;28;20053;-66
2022/07/09 10:37:08;;;;;;;4.22;1.10;;;;;;;21.45;74.78;102297.41;20820889;28;20045;-63
2022/07/09 10:47:39;;;;;;;2.65;0.95;;;;;;;21.66;72.82;102290.28;20838598;28;20402;-64
2022/07/09 10:58:02;;;;;;;1.80;0.60;;;;;;;22.24;72.39;102292.09;20829777;28;20044;-65
2022/07/09 11:08:23;;;;;;;0.82;0.70;;;;;;;21.68;73.94;102305.09;20862475;28;20073;-65
2022/07/09 11:18:45;;;;;;;1.13;1.00;;;;;;;20.94;77.96;102312.47;20849770;28;20060;-64
2022/07/09 11:29:10;;;;;;;16.83;1.40;;;;;;;20.77;80.12;102336.00;20832280;28;20512;-65
2022/07/09 11:39:36;;;;;;;1.83;1.00;;;;;;;21.26;76.50;102334.44;20853166;28;20591;-64
2022/07/09 11:50:15;;;;;;;4.13;1.00;;;;;;;21.81;74.15;102334.06;20849573;28;20048;-63
2022/07/09 12:00:40;;;;;;;2.37;0.87;;;;;;;22.60;72.49;102340.97;20843323;28;20068;-64
2022/07/09 12:11:02;;;;;;;4.30;1.00;;;;;;;22.01;73.65;102327.81;20848423;28;20506;-63
2022/07/09 12:21:24;;;;;;;4.10;1.02;;;;;;;21.58;73.98;102346.69;20840622;28;20413;-66
2022/07/09 12:31:45;;;;;;;4.53;1.40;;;;;;;21.37;74.68;102350.31;20837956;28;20402;-65
2022/07/09 12:42:07;;;;;;;3.63;1.00;;;;;;;21.41;73.75;102338.44;20841085;28;20053;-66
2022/07/09 12:52:29;;;;;;;7.53;1.30;;;;;;;21.25;73.07;102332.75;20840991;28;20045;-66
2022/07/09 13:02:51;;;;;;;6.65;1.30;;;;;;;21.18;71.34;102344.88;20837950;28;20521;-65
2022/07/09 13:13:12;;;;;;;3.30;0.95;;;;;;;21.09;67.57;102350.97;20835778;28;20041;-67
2022/07/09 13:23:34;;;;;;;4.63;0.63;;;;;;;21.09;67.05;102343.00;20802817;28;20047;-65
2022/07/09 13:33:55;;;;;;;4.97;0.80;;;;;;;21.06;65.61;102343.25;20845335;28;20641;-65
2022/07/09 13:44:17;;;;;;;3.58;0.93;;;;;;;21.14;67.99;102348.75;20832257;28;20051;-65
2022/07/09 13:54:39;;;;;;;9.73;0.85;;;;;;;21.13;65.09;102341.75;20838865;28;20053;-66
2022/07/09 14:05:04;;;;;;;7.30;0.73;;;;;;;20.88;60.85;102355.41;20854098;28;20080;-65
2022/07/09 14:15:26;;;;;;;5.20;0.63;;;;;;;20.89;63.12;102349.13;20840279;28;20044;-66
2022/07/09 14:25:48;;;;;;;5.38;0.90;;;;;;;21.12;62.39;102353.34;20831042;28;20045;-66
2022/07/09 14:36:09;;;;;;;4.28;0.90;;;;;;;20.72;59.18;102356.78;20851356;28;20045;-67
2022/07/09 14:46:31;;;;;;;2.17;0.63;;;;;;;20.88;64.99;102358.06;20847303;28;20552;-65
2022/07/09 14:56:53;;;;;;;1.23;0.47;;;;;;;20.85;65.44;102360.97;20876232;28;20413;-64
2022/07/09 15:07:14;;;;;;;2.30;0.55;;;;;;;20.63;64.84;102355.72;20839139;28;20053;-65
2022/07/09 15:17:36;;;;;;;6.13;0.80;;;;;;;20.60;64.47;102350.66;20849190;28;20050;-65
2022/07/09 15:28:04;;;;;;;2.60;0.70;;;;;;;20.80;65.34;102352.56;20850513;28;20461;-64
2022/07/09 15:38:26;;;;;;;5.20;0.65;;;;;;;20.53;64.51;102354.78;20851746;28;20055;-64
2022/07/09 15:48:47;;;;;;;6.63;0.95;;;;;;;20.38;65.91;102349.06;20854207;28;20037;-64
2022/07/09 15:59:09;;;;;;;2.45;1.00;;;;;;;20.09;63.77;102359.34;20844657;28;20040;-63
2022/07/09 16:09:30;;;;;;;3.55;0.80;;;;;;;19.73;64.00;102356.06;20852853;28;20049;-64
2022/07/09 16:19:52;;;;;;;6.60;1.25;;;;;;;19.81;65.95;102343.06;20835961;28;20136;-64
2022/07/09 16:30:15;;;;;;;4.47;0.70;;;;;;;19.92;59.50;102335.97;20847198;28;20057;-64
2022/07/09 16:40:38;;;;;;;5.78;0.98;;;;;;;20.08;62.48;102346.22;20849127;28;20041;-66
2022/07/09 16:51:00;;;;;;;4.80;1.00;;;;;;;19.85;63.69;102333.94;20837322;28;20053;-65
2022/07/09 17:01:21;;;;;;;6.10;1.08;;;;;;;19.92;61.28;102325.38;20832513;28;20067;-63
2022/07/09 17:11:43;;;;;;;8.15;0.90;;;;;;;20.05;64.25;102342.00;20858197;28;20068;-63
2022/07/09 17:22:05;;;;;;;4.78;0.80;;;;;;;20.26;64.62;102336.78;20846603;28;20040;-66
2022/07/09 17:32:26;;;;;;;3.42;0.63;;;;;;;20.31;60.30;102338.09;20842401;28;20068;-63
2022/07/09 17:42:48;;;;;;;2.92;0.63;;;;;;;19.97;63.75;102339.13;20841108;28;20045;-63
2022/07/09 17:53:10;;;;;;;5.38;0.57;;;;;;;19.91;63.94;102339.59;20841071;28;20056;-65
2022/07/09 18:03:32;;;;;;;718.38;20.77;;;;;;;19.76;62.83;102345.25;20837893;28;20041;-65
2022/07/09 18:13:53;;;;;;;3.22;0.70;;;;;;;19.31;64.59;102356.75;20844246;28;20094;-63
2022/07/09 18:24:15;;;;;;;4.68;0.70;;;;;;;19.10;65.86;102342.47;20839051;28;20073;-64
2022/07/09 18:34:37;;;;;;;3.63;1.23;;;;;;;18.96;66.14;102347.97;20839200;28;20045;-64
2022/07/09 18:44:58;;;;;;;6.50;1.15;;;;;;;18.71;64.57;102337.56;20838208;28;20501;-65
2022/07/09 18:55:20;;;;;;;6.25;0.80;;;;;;;18.60;64.80;102345.44;20838987;28;20054;-67
2022/07/09 19:05:41;;;;;;;6.25;0.95;;;;;;;18.40;66.51;102351.31;20838978;28;20446;-63
2022/07/09 19:16:03;;;;;;;6.68;0.90;;;;;;;18.15;69.20;102336.50;20817183;28;20045;-65
2022/07/09 19:26:26;;;;;;;5.53;0.70;;;;;;;17.93;69.70;102336.31;20842469;28;20366;-65
2022/07/09 19:36:47;;;;;;;7.65;1.10;;;;;;;17.83;69.89;102335.31;20848500;28;20053;-66
2022/07/09 19:47:09;;;;;;;3.22;0.65;;;;;;;17.64;70.70;102345.44;20845883;28;20051;-63
2022/07/09 19:57:31;;;;;;;9.30;1.48;;;;;;;17.63;70.96;102355.16;20837153;28;20738;-64
2022/07/09 20:07:53;;;;;;;11.90;1.25;;;;;;;17.55;71.04;102356.66;20846543;28;20379;-68
2022/07/09 20:18:14;;;;;;;4.18;0.85;;;;;;;17.46;71.53;102352.84;20842525;28;20049;-63
2022/07/09 20:28:37;;;;;;;5.88;1.13;;;;;;;17.43;71.26;102365.41;20843331;28;20044;-64
2022/07/09 20:38:59;;;;;;;6.25;1.30;;;;;;;17.45;70.85;102351.16;20861604;28;20037;-70
2022/07/09 20:49:20;;;;;;;7.10;1.30;;;;;;;17.45;69.71;102339.78;20844698;28;20051;-65
2022/07/09 20:59:42;;;;;;;4.45;0.80;;;;;;;17.32;69.73;102328.34;20843038;28;20044;-64
2022/07/09 21:10:04;;;;;;;6.82;1.05;;;;;;;17.28;69.63;102326.88;20844365;28;20383;-64
2022/07/09 21:20:25;;;;;;;5.55;1.42;;;;;;;17.28;69.40;102289.97;20837059;28;20046;-67
2022/07/09 21:30:47;;;;;;;5.55;1.13;;;;;;;17.35;69.04;102285.97;20858172;28;20045;-65
2022/07/09 21:41:08;;;;;;;8.18;1.00;;;;;;;17.28;68.78;102300.50;20819227;28;20048;-64
2022/07/09 21:51:30;;;;;;;4.32;0.70;;;;;;;17.29;68.45;102301.34;20820743;28;20140;-67
2022/07/09 22:01:51;;;;;;;2.83;0.60;;;;;;;17.27;68.64;102295.31;20837552;28;20045;-64
2022/07/09 22:12:13;;;;;;;3.70;0.63;;;;;;;17.08;69.45;102306.28;20824008;28;20053;-65
2022/07/09 22:22:35;;;;;;;4.47;0.75;;;;;;;16.85;71.84;102285.94;20833788;28;20041;-65
2022/07/09 22:32:56;;;;;;;;;;;;;;;16.69;73.10;102280.00;20835670;28;20045;-63
2022/07/09 22:43:19;;;;;;;4.60;0.73;;;;;;;16.65;72.89;102262.72;20833776;28;19923;-64
2022/07/09 22:53:40;;;;;;;5.20;0.80;;;;;;;16.64;73.26;102278.63;20846612;28;20127;-66
2022/07/09 23:04:02;;;;;;;9.82;1.20;;;;;;;16.45;74.34;102278.16;20858831;28;20083;-63
2022/07/09 23:14:24;;;;;;;6.15;1.00;;;;;;;16.44;74.97;102258.88;20853941;28;20136;-64
2022/07/09 23:24:53;;;;;;;3.20;0.60;;;;;;;16.42;75.29;102255.50;20839693;28;20048;-64
2022/07/09 23:35:21;;;;;;;6.83;1.10;;;;;;;16.45;74.77;102247.38;20841180;28;20136;-67
2022/07/09 23:45:42;;;;;;;;;;;;;;;16.40;77.54;102234.66;20847904;28;20051;-65
2022/07/09 23:56:04;;;;;;;5.90;1.02;;;;;;;16.36;77.24;102255.06;20852551;28;19983;-64
